Time;durP1;ratioP1;P1;durP2;ratioP2;P2;SDS_P1;SDS_P2;PMS_P1;PMS_P2;Temp;Humidity;BMP_temperature;BMP_pressure;BME280_temperature;BME280_humidity;BME280_pressure;Samples;Min_cycle;Max_cycle;Signal;HPM_P1;HPM_P2
2022/03/21 00:08:43;;;;;;;282.03;79.03;;;;;;;2.05;51.88;103079.55;713425;1177;115164;-69
2022/03/21 00:23:47;;;;;;;199.67;56.10;;;;;;;1.94;51.87;103075.31;713197;1177;115646;-69
2022/03/21 00:38:49;;;;;;;252.98;73.33;;;;;;;1.73;52.02;103072.84;713441;1174;115814;-69
2022/03/21 00:53:51;;;;;;;241.60;74.03;;;;;;;1.55;52.24;103068.66;713393;1175;116057;-69
2022/03/21 01:08:53;;;;;;;192.10;56.40;;;;;;;1.37;52.86;103073.05;713239;1177;115712;-69
2022/03/21 01:23:56;;;;;;;141.00;42.85;;;;;;;1.19;52.26;103081.77;713797;1175;115562;-69
2022/03/21 01:38:58;;;;;;;96.25;36.00;;;;;;;0.94;53.42;103075.83;713134;1175;115752;-69
2022/03/21 02:09:20;;;;;;;152.38;45.20;;;;;;;0.78;54.18;103052.59;713240;1176;116039;-70
2022/03/21 02:24:46;;;;;;;127.18;39.48;;;;;;;0.70;54.49;103051.77;713251;1175;115239;-69
2022/03/21 02:39:49;;;;;;;121.07;37.07;;;;;;;0.60;54.22;103058.66;713607;1176;116103;-69
2022/03/21 02:54:51;;;;;;;110.33;38.13;;;;;;;0.41;53.87;103056.95;715209;1175;115071;-69
2022/03/21 03:09:54;;;;;;;111.68;37.98;;;;;;;0.44;54.20;103064.72;713316;1175;115794;-69
2022/03/21 03:24:56;;;;;;;101.93;33.60;;;;;;;0.41;54.11;103056.95;713642;1177;114550;-72
2022/03/21 03:39:58;;;;;;;76.40;28.03;;;;;;;0.23;54.14;103050.95;714102;1176;115673;-68
2022/03/21 03:55:01;;;;;;;97.85;34.05;;;;;;;0.14;54.82;103049.22;714028;1175;115074;-69
2022/03/21 04:10:04;;;;;;;50.20;21.50;;;;;;;0.14;55.25;103038.89;717245;1167;115785;-78
2022/03/21 04:25:10;;;;;;;75.60;27.00;;;;;;;0.06;55.29;103056.11;713370;1175;115408;-77
2022/03/21 04:40:12;;;;;;;83.77;32.60;;;;;;;-0.05;55.08;103055.27;713297;1175;115741;-70
2022/03/21 04:55:15;;;;;;;84.83;30.18;;;;;;;-0.05;55.98;103055.27;713807;1174;116222;-71
2022/03/21 05:10:18;;;;;;;114.60;39.90;;;;;;;-0.06;55.91;103049.22;713446;1174;115908;-69
2022/03/21 05:40:41;;;;;;;180.43;52.80;;;;;;;0.13;56.60;103059.55;713056;1174;115611;-70
2022/03/21 05:55:45;;;;;;;171.70;55.30;;;;;;;0.49;57.21;103070.75;712966;1174;116002;-69
2022/03/21 06:10:48;;;;;;;153.97;51.07;;;;;;;0.99;57.42;103081.84;713053;1174;116075;-69
2022/03/21 06:25:53;;;;;;;132.40;44.87;;;;;;;1.95;56.91;103089.09;713278;1174;114743;-70
2022/03/21 06:40:56;;;;;;;358.15;112.35;;;;;;;3.38;55.73;103089.42;713289;1174;114866;-71
2022/03/21 06:55:58;;;;;;;426.63;134.08;;;;;;;5.16;55.31;103099.48;713562;1174;115997;-71
2022/03/21 07:11:00;;;;;;;225.15;79.95;;;;;;;7.09;54.49;103107.03;713301;1175;116326;-71
2022/03/21 07:26:02;;;;;;;165.58;60.63;;;;;;;8.56;51.61;103115.54;713308;1174;115363;-76
2022/03/21 07:41:07;;;;;;;127.48;55.05;;;;;;;10.56;50.04;103109.61;713363;1177;115910;-71
2022/03/21 07:56:09;;;;;;;69.20;31.67;;;;;;;12.50;48.60;103098.78;713643;1176;116131;-70
2022/03/21 08:11:12;;;;;;;36.60;17.67;;;;;;;13.22;44.29;103101.98;713341;1177;116060;-70
2022/03/21 08:26:16;;;;;;;28.45;14.33;;;;;;;13.92;40.82;103109.56;713468;1177;115049;-70
2022/03/21 08:41:21;;;;;;;16.80;10.17;;;;;;;14.50;39.98;103098.29;714322;1175;115884;-78
2022/03/21 08:56:25;;;;;;;37.55;15.98;;;;;;;15.44;38.64;103077.47;714060;1174;116199;-78
2022/03/21 09:11:28;;;;;;;23.08;11.10;;;;;;;16.12;37.69;103074.83;713911;1174;115456;-78
2022/03/21 09:26:30;;;;;;;38.10;15.53;;;;;;;16.26;36.32;103074.73;714260;1174;115692;-79
2022/03/21 09:41:33;;;;;;;22.38;10.30;;;;;;;16.62;35.44;103061.70;713946;1174;116049;-71
2022/03/21 09:56:36;;;;;;;14.23;8.18;;;;;;;17.32;34.92;103044.36;713620;1174;116231;-75
2022/03/21 10:11:43;;;;;;;16.85;8.83;;;;;;;17.59;33.55;103030.00;715030;1174;115996;-75
2022/03/21 10:26:45;;;;;;;19.43;9.77;;;;;;;18.30;34.04;103014.02;718392;1174;115256;-75
2022/03/21 10:42:18;;;;;;;22.20;12.43;;;;;;;18.93;32.31;102997.56;714252;1174;115379;-75
2022/03/21 10:57:37;;;;;;;17.70;10.75;;;;;;;18.85;32.13;102987.52;713607;1175;115018;-75
2022/03/21 11:12:45;;;;;;;15.80;7.83;;;;;;;19.77;31.97;102973.72;713678;1175;115368;-75
2022/03/21 11:28:24;;;;;;;19.10;10.20;;;;;;;20.33;31.50;102955.64;713969;1167;116060;-73
2022/03/21 11:43:29;;;;;;;16.85;9.65;;;;;;;20.95;31.27;102927.00;713843;1175;115545;-75
2022/03/21 11:58:41;;;;;;;20.60;11.37;;;;;;;20.75;30.57;102894.16;713703;1174;115082;-74
2022/03/21 12:14:07;;;;;;;25.45;13.10;;;;;;;20.55;30.24;102884.44;713673;1174;115401;-74
2022/03/21 12:29:31;;;;;;;31.63;15.15;;;;;;;21.14;30.18;102873.78;713693;1174;115180;-74
2022/03/21 12:44:41;;;;;;;16.95;8.75;;;;;;;21.77;29.92;102843.84;713948;1174;114938;-74
2022/03/21 12:59:43;;;;;;;22.85;11.13;;;;;;;21.58;29.64;102834.92;713603;1174;115421;-74
2022/03/21 13:14:46;;;;;;;23.65;10.00;;;;;;;22.21;29.77;102821.78;714095;1174;115478;-74
2022/03/21 13:29:51;;;;;;;26.30;10.75;;;;;;;23.12;28.82;102803.85;713662;1174;116291;-74
2022/03/21 13:44:55;;;;;;;35.53;16.07;;;;;;;23.85;29.37;102794.53;714073;1176;116282;-74
2022/03/21 14:00:08;;;;;;;20.85;11.43;;;;;;;31.20;27.18;102779.86;713946;1174;116027;-74
2022/03/21 14:15:11;;;;;;;31.27;17.53;;;;;;;36.07;26.03;102766.30;720025;1174;116180;-79
2022/03/21 14:30:15;;;;;;;33.08;17.58;;;;;;;36.59;25.14;102750.69;713733;1174;115565;-78
2022/03/21 14:45:18;;;;;;;20.93;13.17;;;;;;;36.62;24.80;102734.61;713543;1174;116138;-76
2022/03/21 15:00:22;;;;;;;18.93;11.80;;;;;;;27.78;25.50;102712.02;713753;1174;115452;-74
2022/03/21 15:15:27;;;;;;;21.48;13.93;;;;;;;24.66;27.63;102696.39;713653;1174;116146;-73
2022/03/21 15:30:31;;;;;;;41.13;22.83;;;;;;;28.92;26.73;102688.66;713627;1176;115516;-73
2022/03/21 15:45:34;;;;;;;17.53;10.87;;;;;;;24.25;26.80;102675.80;713816;1175;115611;-73
2022/03/21 16:00:38;;;;;;;126.90;80.53;;;;;;;22.28;28.27;102671.33;713937;1177;115412;-73
2022/03/21 16:15:55;;;;;;;165.65;86.78;;;;;;;21.70;29.61;102667.30;713456;1177;116166;-77
2022/03/21 16:30:58;;;;;;;43.20;25.15;;;;;;;20.52;30.52;102669.60;713732;1177;114874;-78
2022/03/21 16:46:02;;;;;;;81.30;45.80;;;;;;;18.67;30.96;102670.83;714149;1175;115529;-77
2022/03/21 17:01:05;;;;;;;345.20;157.70;;;;;;;16.73;32.48;102669.52;714117;1177;115840;-79
2022/03/21 17:16:08;;;;;;;105.97;49.33;;;;;;;15.22;33.35;102668.16;713550;1177;115601;-79
2022/03/21 17:31:11;;;;;;;586.73;221.67;;;;;;;14.11;34.77;102672.98;713407;1175;116379;-80
2022/03/21 17:46:13;;;;;;;273.20;91.98;;;;;;;13.36;35.94;102671.54;713737;1177;115972;-74
2022/03/21 18:01:15;;;;;;;184.88;62.38;;;;;;;12.55;36.64;102671.98;713500;1174;115616;-83
2022/03/21 18:16:19;;;;;;;267.78;96.28;;;;;;;11.64;37.99;102677.95;714273;1174;115913;-86
2022/03/21 18:31:21;;;;;;;199.00;74.10;;;;;;;10.83;39.76;102689.17;715941;1174;114551;-86
2022/03/21 18:46:25;;;;;;;127.88;48.90;;;;;;;10.19;40.15;102690.55;715248;1174;115599;-86
2022/03/21 19:01:29;;;;;;;152.30;53.50;;;;;;;9.60;40.76;102706.41;715451;1174;116375;-81
2022/03/21 19:16:35;;;;;;;151.75;51.48;;;;;;;9.02;41.00;102705.44;716127;1174;114995;-81
2022/03/21 19:31:37;;;;;;;279.37;80.97;;;;;;;8.51;41.99;102712.77;716451;1174;116141;-81
2022/03/21 19:46:40;;;;;;;458.73;134.30;;;;;;;8.05;43.21;102719.80;716786;1174;115376;-81
2022/03/21 20:01:43;;;;;;;431.40;129.85;;;;;;;7.64;44.54;102718.70;716178;1174;115479;-81
2022/03/21 20:16:46;;;;;;;469.45;149.38;;;;;;;7.15;45.41;102713.49;716409;1174;115348;-81
2022/03/21 20:31:49;;;;;;;301.95;97.03;;;;;;;6.97;45.54;102711.52;716156;1174;114683;-83
2022/03/21 20:46:52;;;;;;;377.93;119.58;;;;;;;6.55;46.48;102720.71;716647;1174;115406;-76
2022/03/21 21:01:54;;;;;;;417.13;127.68;;;;;;;6.27;46.26;102715.53;714599;1174;116039;-77
2022/03/21 21:16:57;;;;;;;349.98;107.00;;;;;;;5.90;47.18;102714.86;713701;1174;116960;-77
2022/03/21 21:31:59;;;;;;;367.85;114.75;;;;;;;5.68;47.77;102712.02;713785;1174;114947;-77
2022/03/21 21:47:02;;;;;;;222.60;69.80;;;;;;;5.41;47.64;102709.30;713605;1176;115438;-77
2022/03/21 22:02:06;;;;;;;170.15;53.65;;;;;;;5.02;47.80;102716.43;714256;1176;115257;-77
2022/03/21 22:17:08;;;;;;;152.80;54.25;;;;;;;4.97;49.39;102722.58;714038;1175;115866;-77
2022/03/21 22:32:10;;;;;;;192.35;62.70;;;;;;;4.76;49.56;102720.53;714015;1177;115196;-78
2022/03/21 22:47:14;;;;;;;290.15;86.47;;;;;;;4.45;49.27;102727.33;714678;1174;115662;-77
2022/03/21 23:02:21;;;;;;;290.85;87.88;;;;;;;4.26;50.49;102737.30;713613;1177;115538;-77
2022/03/21 23:17:23;;;;;;;166.57;54.97;;;;;;;4.22;50.73;102732.19;713771;1174;115411;-77
2022/03/21 23:32:25;;;;;;;197.15;60.53;;;;;;;3.98;50.77;102737.03;714367;1177;115266;-77
2022/03/21 23:47:28;;;;;;;153.67;48.73;;;;;;;3.78;50.57;102735.70;713831;1174;115831;-77
